To NAV CANADA Home Page Login to a new session Search on AWWS site Disclaimer Vers la page française équivalente Tips FAQ What's new on the site To the Forecasts and Observations / NOTAM section To "File a Flight Plan" website Publications and other links Update of the User's profile FIC Telephone Numbers My Weather Data Folder Route Weather Data Regional Weather Data Local Weather Data To the Forecasts and Observations / NOTAM section
Request Generated 04/24/2019 at 16:41:22 UTC . Weather information available at that time is displayed.

METAR/TAF

CHAPLEAU/ON    

METAR CYLD 241600Z 02006KT 360V070 15SM SKC 06/M03 A2993 RMK SLP158=
METAR CYLD 241500Z 35005KT 320V040 15SM SKC 05/M04 A2995 RMK SLP165=
METAR CYLD 241400Z 02005KT 15SM FEW280 03/M04 A2996 RMK CI1 CI TR SLP168=

TAF CYLD 241338Z 2414/2501 VRB03KT P6SM SKC
BECMG 2417/2419 21006KT SCT100
RMK NXT FCST BY 242000Z=
Your time UTC time
Weather data provided by Environment Canada and NAV CANADA